createdAt,value
2022-10-18T00:00:09.557Z,61.43
2022-10-18T00:02:38.471Z,61.58
2022-10-18T00:05:06.263Z,61.72
2022-10-18T00:07:33.727Z,61.63
2022-10-18T00:10:01.330Z,61.56
2022-10-18T00:12:28.649Z,61.60
2022-10-18T00:14:55.993Z,61.53
2022-10-18T00:17:23.577Z,61.20
2022-10-18T00:19:51.287Z,61.20
2022-10-18T00:22:18.544Z,61.21
2022-10-18T00:24:45.764Z,61.76
2022-10-18T00:27:13.222Z,61.60
2022-10-18T00:29:40.449Z,61.74
2022-10-18T00:32:07.595Z,61.82
2022-10-18T00:34:34.830Z,62.45
2022-10-18T00:37:01.976Z,61.89
2022-10-18T00:39:29.201Z,62.26
2022-10-18T00:41:56.381Z,62.01
2022-10-18T00:44:26.592Z,62.00
2022-10-18T00:46:59.117Z,62.90
2022-10-18T00:49:32.216Z,62.47
2022-10-18T00:52:28.110Z,62.51
2022-10-18T00:54:57.100Z,62.08
2022-10-18T00:57:25.289Z,62.40
2022-10-18T00:59:57.881Z,62.21
2022-10-18T01:02:26.141Z,62.46
2022-10-18T01:04:53.235Z,62.45
2022-10-18T01:07:26.658Z,62.26
2022-10-18T01:10:00.178Z,62.41
2022-10-18T01:12:45.390Z,62.15
2022-10-18T01:15:29.452Z,62.40
2022-10-18T01:18:22.203Z,62.43
2022-10-18T01:21:27.114Z,62.54
2022-10-18T01:24:21.634Z,62.47
2022-10-18T01:27:19.670Z,62.21
2022-10-18T01:30:05.318Z,62.18
2022-10-18T01:32:41.290Z,62.63
2022-10-18T01:35:15.168Z,62.09
2022-10-18T01:37:46.050Z,61.81
2022-10-18T01:40:19.581Z,62.05
2022-10-18T01:42:50.354Z,62.36
2022-10-18T01:45:19.361Z,62.01
2022-10-18T01:47:48.584Z,62.26
2022-10-18T01:50:15.844Z,62.03
2022-10-18T01:52:50.038Z,62.13
2022-10-18T01:55:21.700Z,62.05
2022-10-18T01:58:18.004Z,62.05
2022-10-18T02:00:51.001Z,62.12
2022-10-18T02:03:30.391Z,62.50
2022-10-18T02:06:09.316Z,61.86
2022-10-18T02:09:06.412Z,61.58
2022-10-18T02:11:38.697Z,61.59
2022-10-18T02:14:13.311Z,61.35
2022-10-18T02:16:57.717Z,61.81
2022-10-18T02:19:28.126Z,61.43
2022-10-18T02:21:59.200Z,61.63
2022-10-18T02:24:44.877Z,61.00
2022-10-18T02:27:13.609Z,61.33
2022-10-18T02:29:43.622Z,61.06
2022-10-18T02:32:35.762Z,61.56
2022-10-18T02:35:09.165Z,61.38
2022-10-18T02:37:40.649Z,61.69
2022-10-18T02:40:11.019Z,61.81
2022-10-18T02:42:44.690Z,61.48
2022-10-18T02:45:14.579Z,61.66
2022-10-18T02:47:42.552Z,61.97
2022-10-18T02:50:11.240Z,61.55
2022-10-18T02:52:39.649Z,61.82
2022-10-18T02:55:11.696Z,61.92
2022-10-18T02:57:40.396Z,61.43
2022-10-18T03:00:09.361Z,61.56
2022-10-18T03:02:38.167Z,61.29
2022-10-18T03:05:06.341Z,61.36
2022-10-18T03:07:34.572Z,61.23
2022-10-18T03:10:02.581Z,61.63
2022-10-18T03:12:30.641Z,61.30
2022-10-18T03:14:59.071Z,61.58
2022-10-18T03:17:30.511Z,61.66
2022-10-18T03:19:59.787Z,61.53
2022-10-18T03:24:57.104Z,60.87
2022-10-18T03:27:27.362Z,61.59
2022-10-18T03:30:00.854Z,61.27
2022-10-18T03:32:31.832Z,61.24
2022-10-18T03:35:03.672Z,60.92
2022-10-18T03:37:32.137Z,60.94
2022-10-18T03:40:03.445Z,61.12
2022-10-18T03:42:34.992Z,60.84
2022-10-18T03:45:03.560Z,61.00
2022-10-18T03:47:31.741Z,61.02
2022-10-18T03:50:01.808Z,61.18
2022-10-18T03:52:34.076Z,61.13
2022-10-18T03:55:02.853Z,61.29
2022-10-18T03:57:36.304Z,61.09
2022-10-18T04:00:04.939Z,60.52
2022-10-18T04:02:39.080Z,60.63
2022-10-18T04:05:08.890Z,60.44
2022-10-18T04:10:04.149Z,60.26
2022-10-18T04:12:31.442Z,60.05
2022-10-18T04:15:02.120Z,59.71
2022-10-18T04:17:29.466Z,59.52
2022-10-18T04:19:57.071Z,59.91
2022-10-18T04:22:24.243Z,59.56
2022-10-18T04:24:53.377Z,59.40
2022-10-18T04:27:20.580Z,59.34
2022-10-18T04:29:47.715Z,58.78
2022-10-18T04:32:14.910Z,58.88
2022-10-18T04:37:14.099Z,58.92
2022-10-18T04:39:41.279Z,58.73
2022-10-18T04:42:08.834Z,58.83
2022-10-18T04:44:35.938Z,58.58
2022-10-18T04:47:03.104Z,59.05
2022-10-18T04:49:30.276Z,58.96
2022-10-18T04:51:58.613Z,58.80
2022-10-18T04:54:27.939Z,58.85
2022-10-18T04:56:56.108Z,58.71
2022-10-18T04:59:24.438Z,58.55
2022-10-18T05:01:51.619Z,58.05
2022-10-18T05:04:18.825Z,58.24
2022-10-18T05:06:47.359Z,58.38
2022-10-18T05:09:14.524Z,58.56
2022-10-18T05:11:41.741Z,58.09
2022-10-18T05:14:11.562Z,58.54
2022-10-18T05:16:38.712Z,58.03
2022-10-18T05:19:06.126Z,58.56
2022-10-18T05:21:33.909Z,58.54
2022-10-18T05:24:02.231Z,58.41
2022-10-18T05:26:30.470Z,59.04
2022-10-18T05:28:57.722Z,58.83
2022-10-18T05:31:25.052Z,58.99
2022-10-18T05:33:53.354Z,59.57
2022-10-18T05:36:21.039Z,59.74
2022-10-18T05:38:48.657Z,59.13
2022-10-18T05:41:15.859Z,59.37
2022-10-18T05:43:43.491Z,59.65
2022-10-18T05:46:15.122Z,58.93
2022-10-18T05:48:44.833Z,58.97
2022-10-18T05:51:12.484Z,58.77
2022-10-18T05:53:39.962Z,59.27
2022-10-18T05:56:07.952Z,59.12
2022-10-18T05:58:35.946Z,58.75
2022-10-18T06:01:04.281Z,58.59
2022-10-18T06:03:32.040Z,58.45
2022-10-18T06:06:03.792Z,59.20
2022-10-18T06:08:31.081Z,58.89
2022-10-18T06:11:20.432Z,58.27
2022-10-18T06:13:52.492Z,58.79
2022-10-18T06:16:22.215Z,59.17
2022-10-18T06:18:54.835Z,58.44
2022-10-18T06:21:23.213Z,58.53
2022-10-18T06:23:52.076Z,58.33
2022-10-18T06:26:20.160Z,58.24
2022-10-18T06:28:49.760Z,58.24
2022-10-18T06:31:17.548Z,57.82
2022-10-18T06:33:46.321Z,58.06
2022-10-18T06:36:16.796Z,58.52
2022-10-18T06:38:45.633Z,57.97
2022-10-18T06:41:13.142Z,58.04
2022-10-18T06:43:40.884Z,58.42
2022-10-18T06:46:09.868Z,58.22
2022-10-18T06:48:38.955Z,57.89
2022-10-18T06:51:07.927Z,58.15
2022-10-18T06:53:44.105Z,57.98
2022-10-18T06:56:20.657Z,58.10
2022-10-18T06:58:47.991Z,58.02
2022-10-18T07:01:17.169Z,58.60
2022-10-18T07:03:46.146Z,58.28
2022-10-18T07:06:15.130Z,57.70
2022-10-18T07:08:42.865Z,57.69
2022-10-18T07:11:19.169Z,57.02
2022-10-18T07:13:46.448Z,57.24
2022-10-18T07:16:18.314Z,57.61
2022-10-18T07:18:51.295Z,57.33
2022-10-18T07:21:24.079Z,56.94
2022-10-18T07:23:52.253Z,57.01
2022-10-18T07:26:21.057Z,57.00
2022-10-18T07:28:51.692Z,56.49
2022-10-18T07:31:19.775Z,56.41
2022-10-18T07:33:46.822Z,56.42
2022-10-18T07:36:14.331Z,56.08
2022-10-18T07:38:42.036Z,55.88
2022-10-18T07:41:12.403Z,55.55
2022-10-18T07:43:46.028Z,55.76
2022-10-18T07:46:14.384Z,55.40
2022-10-18T07:48:42.004Z,54.74
2022-10-18T07:51:10.564Z,54.94
2022-10-18T07:53:39.020Z,55.10
2022-10-18T07:56:11.994Z,54.89
2022-10-18T07:58:45.869Z,54.80
2022-10-18T08:01:14.461Z,55.12
2022-10-18T08:03:43.142Z,55.28
2022-10-18T08:06:12.958Z,54.31
2022-10-18T08:08:41.912Z,54.26
2022-10-18T08:11:15.616Z,54.17
2022-10-18T08:13:43.338Z,53.59
2022-10-18T08:16:13.748Z,53.34
2022-10-18T08:18:41.353Z,53.06
2022-10-18T08:21:11.222Z,53.05
2022-10-18T08:23:39.004Z,51.54
2022-10-18T08:26:09.781Z,51.42
2022-10-18T08:28:43.650Z,51.41
2022-10-18T08:31:18.700Z,50.91
2022-10-18T08:33:47.559Z,51.24
2022-10-18T08:36:16.898Z,51.39
2022-10-18T08:38:44.553Z,50.45
2022-10-18T08:41:35.622Z,49.41
2022-10-18T08:44:16.202Z,49.08
2022-10-18T08:46:48.516Z,48.33
2022-10-18T08:49:28.922Z,47.66
2022-10-18T08:51:58.163Z,48.15
2022-10-18T08:54:35.309Z,46.69
2022-10-18T08:57:07.770Z,46.45
2022-10-18T08:59:40.017Z,45.69
2022-10-18T09:02:19.461Z,46.47
2022-10-18T09:05:28.019Z,45.60
2022-10-18T09:08:26.343Z,45.27
2022-10-18T09:11:18.549Z,44.78
2022-10-18T09:13:48.531Z,44.69
2022-10-18T09:16:28.745Z,44.36
2022-10-18T09:19:13.419Z,44.23
2022-10-18T09:21:52.627Z,43.42
2022-10-18T09:24:31.343Z,43.54
2022-10-18T09:27:09.197Z,43.69
2022-10-18T09:29:58.094Z,42.68
2022-10-18T09:32:47.383Z,42.75
2022-10-18T09:35:20.805Z,43.28
2022-10-18T09:37:56.143Z,42.05
2022-10-18T09:40:31.179Z,42.82
2022-10-18T09:43:20.846Z,41.79
2022-10-18T09:45:56.230Z,41.88
2022-10-18T09:48:36.497Z,41.71
2022-10-18T09:51:18.216Z,42.18
2022-10-18T09:54:16.182Z,41.59
2022-10-18T09:57:05.983Z,41.91
2022-10-18T09:59:42.029Z,43.10
2022-10-18T10:02:25.537Z,43.35
2022-10-18T10:04:58.928Z,42.93
2022-10-18T10:07:32.534Z,42.48
2022-10-18T10:10:22.713Z,41.89
2022-10-18T10:13:04.644Z,40.29
2022-10-18T10:15:37.086Z,40.25
2022-10-18T10:18:21.814Z,39.75
2022-10-18T10:21:00.847Z,40.01
2022-10-18T10:23:31.869Z,40.83
2022-10-18T10:26:02.394Z,40.56
2022-10-18T10:28:49.213Z,40.10
2022-10-18T10:31:21.807Z,40.55
2022-10-18T10:33:59.135Z,40.60
2022-10-18T10:36:26.507Z,40.10
2022-10-18T10:39:24.402Z,39.93
2022-10-18T10:41:59.599Z,40.09
2022-10-18T10:44:30.833Z,39.38
2022-10-18T10:46:59.397Z,39.96
2022-10-18T10:49:42.890Z,39.51
2022-10-18T10:52:27.390Z,39.41
2022-10-18T10:55:06.073Z,39.63
2022-10-18T10:57:47.374Z,39.91
2022-10-18T11:00:39.751Z,39.76
2022-10-18T11:03:29.046Z,39.39
2022-10-18T11:06:01.009Z,39.27
2022-10-18T11:08:36.071Z,38.53
2022-10-18T11:11:31.157Z,38.49
2022-10-18T11:14:26.621Z,38.31
2022-10-18T11:17:15.111Z,38.66
2022-10-18T11:20:16.854Z,37.87
2022-10-18T11:23:14.140Z,38.31
2022-10-18T11:25:51.285Z,37.78
2022-10-18T11:28:36.658Z,37.54
2022-10-18T11:31:28.653Z,36.89
2022-10-18T11:34:23.116Z,37.64
2022-10-18T11:36:56.117Z,37.46
2022-10-18T11:40:00.291Z,37.03
2022-10-18T11:43:05.991Z,37.11
2022-10-18T11:45:42.233Z,36.93
2022-10-18T11:48:37.353Z,36.68
2022-10-18T11:52:07.245Z,36.66
2022-10-18T11:54:56.738Z,36.38
2022-10-18T11:57:46.999Z,36.17
2022-10-18T12:00:25.161Z,35.81
2022-10-18T12:02:52.313Z,35.71
2022-10-18T12:05:24.334Z,34.96
2022-10-18T12:08:16.604Z,34.48
2022-10-18T12:11:04.673Z,34.08
2022-10-18T12:13:39.572Z,33.68
2022-10-18T12:16:09.666Z,34.22
2022-10-18T12:19:00.323Z,33.77
2022-10-18T12:21:31.638Z,34.14
2022-10-18T12:24:25.923Z,34.31
2022-10-18T12:26:59.303Z,34.10
2022-10-18T12:29:53.734Z,34.57
2022-10-18T12:32:34.596Z,33.30
2022-10-18T12:35:07.670Z,32.79
2022-10-18T12:37:51.890Z,32.99
2022-10-18T12:40:41.776Z,33.50
2022-10-18T12:43:14.939Z,32.89
2022-10-18T12:46:13.594Z,32.84
2022-10-18T12:48:45.788Z,33.42
2022-10-18T12:51:19.223Z,32.72
2022-10-18T12:53:49.701Z,33.90
2022-10-18T12:56:31.813Z,33.42
2022-10-18T12:59:17.261Z,33.06
2022-10-18T13:01:53.665Z,32.89
2022-10-18T13:04:41.156Z,33.62
2022-10-18T13:07:08.607Z,34.42
2022-10-18T13:09:36.642Z,33.89
2022-10-18T13:12:10.261Z,33.50
2022-10-18T13:15:12.553Z,33.94
2022-10-18T13:17:56.464Z,33.99
2022-10-18T13:20:37.917Z,34.21
2022-10-18T13:23:17.054Z,35.27
2022-10-18T13:26:13.775Z,35.75
2022-10-18T13:28:59.887Z,36.13
2022-10-18T13:31:36.147Z,35.44
2022-10-18T13:34:23.253Z,35.53
2022-10-18T13:37:02.609Z,35.04
2022-10-18T13:39:31.246Z,35.33
2022-10-18T13:41:58.500Z,35.07
2022-10-18T13:44:28.993Z,36.43
2022-10-18T13:47:16.387Z,35.91
2022-10-18T13:49:59.583Z,36.23
2022-10-18T13:52:42.942Z,36.44
2022-10-18T13:55:55.912Z,37.39
2022-10-18T13:58:49.137Z,37.60
2022-10-18T14:02:30.790Z,39.41
2022-10-18T14:05:25.363Z,38.56
2022-10-18T14:08:06.879Z,38.12
2022-10-18T14:11:02.458Z,38.77
2022-10-18T14:14:20.702Z,40.49
2022-10-18T14:16:55.267Z,38.98
2022-10-18T14:19:40.393Z,39.06
2022-10-18T14:22:13.633Z,40.20
2022-10-18T14:24:46.265Z,39.99
2022-10-18T14:27:25.429Z,41.87
2022-10-18T14:30:18.601Z,41.52
2022-10-18T14:32:55.688Z,41.44
2022-10-18T14:35:33.232Z,42.08
2022-10-18T14:38:18.065Z,42.80
2022-10-18T14:43:29.776Z,44.47
2022-10-18T14:46:24.565Z,44.75
2022-10-18T14:49:01.410Z,44.54
2022-10-18T14:51:33.369Z,45.92
2022-10-18T14:54:01.350Z,46.65
2022-10-18T14:56:28.530Z,48.96
2022-10-18T14:58:58.005Z,48.56
2022-10-18T15:01:32.922Z,48.75
2022-10-18T15:04:10.517Z,48.81
2022-10-18T15:06:43.983Z,50.41
2022-10-18T15:09:18.242Z,50.36
2022-10-18T15:11:46.248Z,51.25
2022-10-18T15:14:19.755Z,51.92
2022-10-18T15:16:49.500Z,52.32
2022-10-18T15:19:19.708Z,51.69
2022-10-18T15:22:19.682Z,53.74
2022-10-18T15:25:07.509Z,52.63
2022-10-18T15:27:38.672Z,51.38
2022-10-18T15:30:11.193Z,51.87
2022-10-18T15:32:40.608Z,52.01
2022-10-18T15:35:25.014Z,52.50
2022-10-18T15:37:56.060Z,52.70
2022-10-18T15:40:38.466Z,52.95
2022-10-18T15:43:27.243Z,52.85
2022-10-18T15:46:06.985Z,52.40
2022-10-18T15:48:40.921Z,52.54
2022-10-18T15:51:19.846Z,53.47
2022-10-18T15:53:50.289Z,53.98
2022-10-18T15:56:27.094Z,54.59
2022-10-18T15:58:57.294Z,53.71
2022-10-18T16:01:33.709Z,54.51
2022-10-18T16:04:02.276Z,54.42
2022-10-18T16:06:32.599Z,54.88
2022-10-18T16:09:14.154Z,55.13
2022-10-18T16:11:41.380Z,55.08
2022-10-18T16:14:11.651Z,54.43
2022-10-18T16:16:41.332Z,54.82
2022-10-18T16:19:16.162Z,54.38
2022-10-18T16:21:43.858Z,54.59
2022-10-18T16:24:11.509Z,54.29
2022-10-18T16:26:43.647Z,55.76
2022-10-18T16:29:29.162Z,56.06
2022-10-18T16:31:58.910Z,55.30
2022-10-18T16:34:27.760Z,55.60
2022-10-18T16:36:59.087Z,55.59
2022-10-18T16:39:35.145Z,55.82
2022-10-18T16:42:02.696Z,55.66
2022-10-18T16:44:42.564Z,56.15
2022-10-18T16:47:14.962Z,56.50
2022-10-18T16:49:51.161Z,56.28
2022-10-18T16:52:32.193Z,56.33
2022-10-18T16:55:19.634Z,56.21
2022-10-18T16:57:50.830Z,56.09
2022-10-18T17:00:22.131Z,55.56
2022-10-18T17:02:52.846Z,55.78
2022-10-18T17:05:20.768Z,55.66
2022-10-18T17:07:51.397Z,55.67
2022-10-18T17:10:26.860Z,55.83
2022-10-18T17:12:54.497Z,56.38
2022-10-18T17:15:21.963Z,56.59
2022-10-18T17:17:59.591Z,56.99
2022-10-18T17:20:36.684Z,56.96
2022-10-18T17:23:05.123Z,57.58
2022-10-18T17:25:42.181Z,57.20
2022-10-18T17:28:24.152Z,57.85
2022-10-18T17:30:52.418Z,58.29
2022-10-18T17:33:21.125Z,57.89
2022-10-18T17:35:53.097Z,57.44
2022-10-18T17:38:20.548Z,58.60
2022-10-18T17:40:50.228Z,58.10
2022-10-18T17:43:18.969Z,57.86
2022-10-18T17:45:51.366Z,58.08
2022-10-18T17:48:18.809Z,58.88
2022-10-18T17:50:46.022Z,57.41
2022-10-18T17:53:13.450Z,57.77
2022-10-18T17:55:43.649Z,58.12
2022-10-18T17:58:11.989Z,57.63
2022-10-18T18:00:42.245Z,57.40
2022-10-18T18:03:14.765Z,57.26
2022-10-18T18:05:47.935Z,57.71
2022-10-18T18:08:17.488Z,57.88
2022-10-18T18:10:46.469Z,58.32
2022-10-18T18:13:18.952Z,58.25
2022-10-18T18:15:56.085Z,57.89
2022-10-18T18:18:31.801Z,58.62
2022-10-18T18:20:59.398Z,58.38
2022-10-18T18:23:28.124Z,58.57
2022-10-18T18:26:01.579Z,58.33
2022-10-18T18:28:29.438Z,58.69
2022-10-18T18:30:56.926Z,57.77
2022-10-18T18:33:26.196Z,57.90
2022-10-18T18:36:03.005Z,58.60
2022-10-18T18:38:30.978Z,58.94
2022-10-18T18:41:11.231Z,58.96
2022-10-18T18:43:41.030Z,59.11
2022-10-18T18:46:09.136Z,58.99
2022-10-18T18:48:38.404Z,58.86
2022-10-18T18:51:12.686Z,58.85
2022-10-18T18:53:40.770Z,59.27
2022-10-18T18:56:14.774Z,59.55
2022-10-18T18:58:44.283Z,59.73
2022-10-18T19:01:30.099Z,59.99
2022-10-18T19:03:58.886Z,59.85
2022-10-18T19:06:44.730Z,60.08
2022-10-18T19:09:25.602Z,60.89
2022-10-18T19:11:54.770Z,60.49
2022-10-18T19:14:25.370Z,60.58
2022-10-18T19:16:57.974Z,59.93
2022-10-18T19:19:30.401Z,60.66
2022-10-18T19:22:01.121Z,60.51
2022-10-18T19:24:30.767Z,60.42
2022-10-18T19:27:02.744Z,61.02
2022-10-18T19:29:32.473Z,60.35
2022-10-18T19:32:02.464Z,60.46
2022-10-18T19:34:31.398Z,60.81
2022-10-18T19:36:58.729Z,60.93
2022-10-18T19:39:28.353Z,60.45
2022-10-18T19:42:00.446Z,60.76
2022-10-18T19:44:30.944Z,61.11
2022-10-18T19:46:58.651Z,60.76
2022-10-18T19:49:26.483Z,60.85
2022-10-18T19:51:53.859Z,60.65
2022-10-18T19:54:21.226Z,60.60
2022-10-18T19:56:48.569Z,60.57
2022-10-18T19:59:22.494Z,60.48
2022-10-18T20:01:50.004Z,60.52
2022-10-18T20:04:17.679Z,60.44
2022-10-18T20:06:45.743Z,60.60
2022-10-18T20:09:19.572Z,60.53
2022-10-18T20:11:51.140Z,60.46
2022-10-18T20:14:23.802Z,60.94
2022-10-18T20:16:51.093Z,60.72
2022-10-18T20:19:18.352Z,60.41
2022-10-18T20:21:47.954Z,60.47
2022-10-18T20:24:15.170Z,60.34
2022-10-18T20:26:43.943Z,60.28
2022-10-18T20:29:11.401Z,60.47
2022-10-18T20:31:39.550Z,60.12
2022-10-18T20:34:11.180Z,60.69
2022-10-18T20:36:43.101Z,60.64
2022-10-18T20:39:10.383Z,60.68
2022-10-18T20:41:41.455Z,61.07
2022-10-18T20:44:13.685Z,61.02
2022-10-18T20:46:41.422Z,60.65
2022-10-18T20:49:13.821Z,60.84
2022-10-18T20:51:41.438Z,60.57
2022-10-18T20:54:09.276Z,60.86
2022-10-18T20:56:41.876Z,60.99
2022-10-18T20:59:11.902Z,60.57
2022-10-18T21:04:23.144Z,61.01
2022-10-18T21:06:50.560Z,60.83
2022-10-18T21:09:20.795Z,60.93
2022-10-18T21:11:54.006Z,61.09
2022-10-18T21:14:25.217Z,61.09
2022-10-18T21:16:55.654Z,61.30
2022-10-18T21:19:25.729Z,61.35
2022-10-18T21:21:56.924Z,60.86
2022-10-18T21:24:27.845Z,61.35
2022-10-18T21:26:55.350Z,61.52
2022-10-18T21:29:28.041Z,61.01
2022-10-18T21:32:00.077Z,60.74
2022-10-18T21:34:30.497Z,60.23
2022-10-18T21:37:03.184Z,60.36
2022-10-18T21:39:33.095Z,60.69
2022-10-18T21:42:00.598Z,60.65
2022-10-18T21:44:27.956Z,60.81
2022-10-18T21:46:55.451Z,60.73
2022-10-18T21:49:27.582Z,61.15
2022-10-18T21:51:58.213Z,60.90
2022-10-18T21:54:25.383Z,60.91
2022-10-18T21:56:52.660Z,61.03
2022-10-18T21:59:19.896Z,61.20
2022-10-18T22:01:47.360Z,61.54
2022-10-18T22:04:23.607Z,61.30
2022-10-18T22:06:51.029Z,61.39
2022-10-18T22:09:20.985Z,61.40
2022-10-18T22:11:51.972Z,61.37
2022-10-18T22:14:20.231Z,61.56
2022-10-18T22:16:47.359Z,61.62
2022-10-18T22:19:14.914Z,61.83
2022-10-18T22:21:42.043Z,61.53
2022-10-18T22:24:10.992Z,61.97
2022-10-18T22:26:41.397Z,62.07
2022-10-18T22:29:12.654Z,61.78
2022-10-18T22:31:43.234Z,62.08
2022-10-18T22:34:16.972Z,62.05
2022-10-18T22:36:45.885Z,61.93
2022-10-18T22:39:14.810Z,61.91
2022-10-18T22:41:42.639Z,62.01
2022-10-18T22:44:12.808Z,62.06
2022-10-18T22:46:41.288Z,61.50
2022-10-18T22:49:09.085Z,62.29
2022-10-18T22:51:36.452Z,61.58
2022-10-18T22:54:06.739Z,62.32
2022-10-18T22:56:37.166Z,62.07
2022-10-18T22:59:04.852Z,61.79
2022-10-18T23:01:32.295Z,62.10
2022-10-18T23:04:01.014Z,62.05
2022-10-18T23:06:33.668Z,61.74
2022-10-18T23:09:05.309Z,61.49
2022-10-18T23:11:33.784Z,61.96
2022-10-18T23:14:05.572Z,61.46
2022-10-18T23:16:33.116Z,61.69
2022-10-18T23:19:00.383Z,61.66
2022-10-18T23:21:28.548Z,62.09
2022-10-18T23:23:57.572Z,62.18
2022-10-18T23:26:26.818Z,61.55
2022-10-18T23:28:54.910Z,61.82
2022-10-18T23:31:29.085Z,61.37
2022-10-18T23:33:58.016Z,61.46
2022-10-18T23:36:25.592Z,61.82
2022-10-18T23:38:53.743Z,61.39
2022-10-18T23:41:21.322Z,61.77
2022-10-18T23:43:48.843Z,61.47
2022-10-18T23:46:17.452Z,61.80
2022-10-18T23:48:45.073Z,61.86
2022-10-18T23:51:12.472Z,61.37
2022-10-18T23:53:42.598Z,61.53
2022-10-18T23:56:15.807Z,61.51
2022-10-18T23:58:45.081Z,61.60
